• Join FlightAware (Why Join?)
  • Login
  • US Flag 
01:29AM EST


 

Airport Tracker/Info


-or-


 

Live Flight TrackerFlight Track Log ✈ C-GRJR ✈ 15-Jul-2013 ✈ CNY3 - CYSN

Flight Track Log - Related Links

Times and Time Zones

All times are in EDT time to prevent confusion due to time zone crossing. See the C-GRJR flight status page for this flight to view local times or setup timezone preferences in your user account.

Time Position Orientation Groundspeed Altitude Reporting Facility
EDT Latitude Longitude Course Direction KTS MPH feet Rate Location/Type
03:03PM 44.3667 -80.2000 193° South 180 207 6,000  Level Toronto Center
03:04PM 44.3167 -80.2167 193° South 190 219 7,900 1,920 Climbing Toronto Center
03:05PM 44.2667 -80.2167 180° South 210 242 9,900 1,860 Climbing Toronto Center
03:06PM 44.2000 -80.2333 190° South 220 253 11,700 1,920 Climbing Toronto Center
03:07PM 44.1333 -80.2333 180° South 230 265 13,800 1,620 Climbing Toronto Center
03:08PM 44.0667 -80.2667 200° South 240 276 15,000 600 Climbing Toronto Center
03:09PM 43.9833 -80.2667 180° South 290 334 15,000  Level Toronto Center
03:10PM 43.9000 -80.2833 188° South 310 357 15,000  Level Toronto Center
03:11PM 43.8167 -80.3000 188° South 320 368 15,000 -420 Level Toronto Center
03:12PM 43.7333 -80.3333 196° South 330 380 14,200 -1,440 Descending Toronto Center
03:13PM 43.6333 -80.3167 173° South 310 357 12,200 -1,620 Descending Toronto Center
03:14PM 43.5667 -80.3500 200° South 290 334 11,000 -600 Descending Toronto Center
03:15PM 43.4833 -80.3500 180° South 290 334 11,100  Climbing Toronto Center
03:16PM 43.4000 -80.3167 164° South 310 357 11,100  Level Toronto Center
03:17PM 43.3333 -80.2500 144° Southeast 310 357 11,100  Level Toronto Center
03:18PM 43.3000 -80.1333 111° Southeast 310 357 11,100  Level Toronto Center
03:19PM 43.3000 -80.0167 90° East 310 357 11,100 -180 Level Toronto Center
03:20PM 43.2833 -79.9000 101° East 310 357 10,800 -600 Descending Toronto Center
03:21PM 43.2667 -79.8000 103° East 310 357 10,000 -960 Descending Toronto Center
03:22PM 43.2333 -79.6833 111° Southeast 290 334 8,900 -1,200 Descending Toronto Center
03:23PM 43.2167 -79.5833 103° East 290 334 7,700 -1,500 Descending Toronto Center
03:24PM 43.1833 -79.4667 111° Southeast 290 334 5,900 -1,740 Descending Toronto Center
03:25PM 43.1667 -79.3667 103° East 280 322 4,300 -1,740 Descending Toronto Center
03:26PM 43.1500 -79.2667 103° East 270 311 2,500 -1,500 Descending Toronto Center
03:27PM 43.1500 -79.2000 90° East 220 253 1,400 -1,020 Descending Toronto Center
03:28PM 43.1833 -79.1500 48° Northeast 150 173 500 -900 Descending Toronto Center
03:30PM 43.1833 -79.1667 270° West  Level FlightAware Approximate
03:37PM 43.1917 -79.1717 270° West  Level Estimated
03:38PM 43.1917 -79.1717 270° West  Level Estimated
03:39PM 43.1917 -79.1717 270° West  Level Estimated